Time;durP1;ratioP1;P1;durP2;ratioP2;P2;SDS_P1;SDS_P2;PMS_P1;PMS_P2;Temp;Humidity;BMP_temperature;BMP_pressure;BME280_temperature;BME280_humidity;BME280_pressure;Samples;Min_cycle;Max_cycle;Signal;HPM_P1;HPM_P2
2023/12/28 00:00:13;;;;;;;11.70;11.30;;;7.50;99.90;;;;;;5112479;27;20238;-61
2023/12/28 00:02:40;;;;;;;10.90;10.50;;;7.50;99.90;;;;;;5111557;28;20206;-63
2023/12/28 00:05:07;;;;;;;11.20;10.80;;;7.50;99.90;;;;;;5115217;27;20206;-64
2023/12/28 00:07:35;;;;;;;11.13;10.73;;;7.50;99.90;;;;;;5114620;27;20194;-63
2023/12/28 00:10:02;;;;;;;11.03;10.63;;;7.40;99.90;;;;;;5111473;27;21063;-62
2023/12/28 00:12:30;;;;;;;11.40;11.00;;;7.50;99.90;;;;;;5112654;28;20205;-63
2023/12/28 00:14:57;;;;;;;11.03;10.63;;;7.50;99.90;;;;;;5110707;28;20206;-62
2023/12/28 00:17:24;;;;;;;11.00;10.60;;;7.50;99.90;;;;;;5115709;27;20684;-62
2023/12/28 00:19:51;;;;;;;11.60;11.20;;;7.40;99.90;;;;;;5111018;28;20704;-61
2023/12/28 00:22:17;;;;;;;11.20;10.80;;;7.40;99.90;;;;;;5113646;28;20206;-61
2023/12/28 00:24:44;;;;;;;11.13;10.73;;;7.40;99.90;;;;;;5107592;28;20202;-63
2023/12/28 00:27:11;;;;;;;11.20;10.80;;;7.30;99.90;;;;;;5112268;28;20676;-61
2023/12/28 00:29:41;;;;;;;11.53;11.13;;;7.30;99.90;;;;;;5110840;27;20247;-62
2023/12/28 00:32:09;;;;;;;11.47;11.07;;;7.20;99.90;;;;;;5112467;27;20194;-62
2023/12/28 00:34:36;;;;;;;11.82;11.43;;;7.20;99.90;;;;;;5115383;27;20772;-61
2023/12/28 00:37:03;;;;;;;11.40;11.00;;;7.30;99.90;;;;;;5111961;28;20719;-60
2023/12/28 00:39:29;;;;;;;10.97;10.57;;;7.30;99.90;;;;;;5110203;28;20196;-62
2023/12/28 00:41:56;;;;;;;11.20;10.80;;;7.40;99.90;;;;;;5113203;28;20212;-61
2023/12/28 00:44:23;;;;;;;11.23;10.83;;;7.30;99.90;;;;;;5115953;27;20205;-61
2023/12/28 00:46:51;;;;;;;11.20;10.80;;;7.30;99.90;;;;;;5117183;28;20209;-62
2023/12/28 00:49:18;;;;;;;11.50;11.10;;;7.30;99.90;;;;;;5115749;27;20205;-62
2023/12/28 00:51:44;;;;;;;10.97;10.57;;;7.30;99.90;;;;;;5108735;28;20229;-62
2023/12/28 00:54:11;;;;;;;11.30;10.90;;;7.30;99.90;;;;;;5114218;28;20204;-64
2023/12/28 00:56:38;;;;;;;11.00;10.60;;;7.30;99.90;;;;;;5120406;28;20439;-63
2023/12/28 00:59:05;;;;;;;11.30;10.90;;;7.30;99.90;;;;;;5121699;27;20261;-62
2023/12/28 01:01:32;;;;;;;11.40;11.00;;;7.30;99.90;;;;;;5124340;27;20716;-63
2023/12/28 01:03:59;;;;;;;11.30;10.90;;;7.30;99.90;;;;;;5116446;28;20201;-63
2023/12/28 01:06:28;;;;;;;11.40;11.00;;;7.30;99.90;;;;;;5109245;28;20293;-63
2023/12/28 01:08:55;;;;;;;11.50;11.10;;;7.30;99.90;;;;;;5113816;28;20257;-61
2023/12/28 01:11:22;;;;;;;11.37;10.97;;;7.30;99.90;;;;;;5110385;28;20229;-63
2023/12/28 01:13:49;;;;;;;11.10;10.70;;;7.30;99.90;;;;;;5107168;28;20293;-63
2023/12/28 01:16:15;;;;;;;11.60;11.20;;;7.30;99.90;;;;;;5106782;28;20204;-62
2023/12/28 01:18:42;;;;;;;11.80;11.40;;;7.30;99.90;;;;;;5112080;28;20210;-62
2023/12/28 01:21:11;;;;;;;11.80;11.40;;;7.30;99.90;;;;;;5108374;28;20218;-62
2023/12/28 01:23:37;;;;;;;11.27;10.87;;;7.30;99.90;;;;;;5112142;28;20202;-62
2023/12/28 01:26:04;;;;;;;11.77;11.37;;;7.20;99.90;;;;;;5111226;28;20202;-63
2023/12/28 01:28:31;;;;;;;11.20;10.80;;;7.20;99.90;;;;;;5115672;27;20586;-63
2023/12/28 01:30:58;;;;;;;11.33;10.93;;;7.20;99.90;;;;;;5112335;28;20230;-63
2023/12/28 01:33:24;;;;;;;10.77;10.37;;;7.20;99.90;;;;;;5115684;27;20274;-62
2023/12/28 01:35:51;;;;;;;11.40;11.00;;;7.20;99.90;;;;;;5117070;28;20459;-62
2023/12/28 01:38:19;;;;;;;11.10;10.70;;;7.20;99.90;;;;;;5122548;28;20310;-61
2023/12/28 01:40:46;;;;;;;10.90;10.50;;;7.20;99.90;;;;;;5116235;28;20588;-63
2023/12/28 01:43:12;;;;;;;11.43;11.03;;;7.20;99.90;;;;;;5118252;28;20206;-63
2023/12/28 01:45:39;;;;;;;10.80;10.40;;;7.10;99.90;;;;;;5117122;28;20671;-60
2023/12/28 01:48:06;;;;;;;10.87;10.47;;;7.00;99.90;;;;;;5117582;27;20200;-62
2023/12/28 01:50:33;;;;;;;11.80;11.30;;;7.10;99.90;;;;;;5109442;28;20222;-61
2023/12/28 01:53:02;;;;;;;11.77;11.33;;;7.00;99.90;;;;;;5111538;28;20212;-61
2023/12/28 01:55:31;;;;;;;11.00;10.60;;;7.00;99.90;;;;;;5112254;27;20206;-62
2023/12/28 01:57:58;;;;;;;11.30;10.90;;;7.00;99.90;;;;;;5111256;28;20628;-61
2023/12/28 02:00:25;;;;;;;11.20;10.80;;;7.00;99.90;;;;;;5111048;28;20233;-61
2023/12/28 02:02:52;;;;;;;11.50;11.10;;;7.00;99.90;;;;;;5112919;27;20225;-62
2023/12/28 02:05:19;;;;;;;11.53;11.13;;;7.00;99.90;;;;;;5113518;28;20241;-63
2023/12/28 02:07:46;;;;;;;11.00;10.60;;;7.00;99.90;;;;;;5113874;27;20210;-63
2023/12/28 02:10:13;;;;;;;11.53;11.13;;;7.20;99.90;;;;;;5114385;27;20229;-62
2023/12/28 02:12:41;;;;;;;11.20;10.80;;;7.20;99.90;;;;;;5114975;28;20322;-62
2023/12/28 02:15:09;;;;;;;11.30;10.90;;;7.20;99.90;;;;;;5116649;27;20228;-62
2023/12/28 02:17:44;;;;;;;12.97;12.47;;;7.30;99.90;;;;;;5110817;28;20225;-62
2023/12/28 02:20:12;;;;;;;10.90;10.50;;;7.40;99.90;;;;;;5110834;28;20256;-63
2023/12/28 02:22:40;;;;;;;11.57;11.17;;;7.50;99.90;;;;;;5108468;28;20213;-62
2023/12/28 02:25:09;;;;;;;11.23;10.83;;;7.50;99.90;;;;;;5108812;28;20243;-64
2023/12/28 02:27:38;;;;;;;11.00;10.60;;;7.50;99.90;;;;;;5110473;28;20653;-62
2023/12/28 02:30:08;;;;;;;10.97;10.57;;;7.50;99.90;;;;;;5104718;28;20692;-62
2023/12/28 02:32:43;;;;;;;10.63;10.23;;;7.50;99.90;;;;;;5111535;28;20723;-62
2023/12/28 02:35:18;;;;;;;11.23;10.83;;;7.50;99.90;;;;;;5104762;28;20866;-62
2023/12/28 02:37:48;;;;;;;11.43;11.03;;;7.60;99.90;;;;;;5106931;28;20596;-62
2023/12/28 02:40:17;;;;;;;11.17;10.77;;;7.60;99.90;;;;;;5109854;28;20222;-60
2023/12/28 02:42:44;;;;;;;11.57;11.17;;;7.70;99.90;;;;;;5110224;28;20218;-62
2023/12/28 02:45:11;;;;;;;11.60;11.20;;;7.70;99.90;;;;;;5110879;28;20210;-62
2023/12/28 02:47:38;;;;;;;11.23;10.83;;;7.80;99.90;;;;;;5106682;28;20287;-62
2023/12/28 02:50:06;;;;;;;11.03;10.60;;;7.80;99.90;;;;;;5109189;28;20237;-62
2023/12/28 02:52:32;;;;;;;11.10;10.60;;;7.80;99.90;;;;;;5107735;28;20673;-61
2023/12/28 02:54:59;;;;;;;11.60;11.20;;;7.90;99.90;;;;;;5109171;28;20288;-61
2023/12/28 02:57:27;;;;;;;11.20;10.80;;;8.00;99.90;;;;;;5105459;28;20240;-62
2023/12/28 02:59:56;;;;;;;10.97;10.57;;;8.10;99.90;;;;;;5106749;28;20217;-63
2023/12/28 03:02:23;;;;;;;11.20;10.80;;;8.20;99.90;;;;;;5108354;28;20198;-63
2023/12/28 03:04:50;;;;;;;11.47;11.07;;;8.20;99.90;;;;;;5109206;28;20205;-64
2023/12/28 03:07:16;;;;;;;11.37;10.97;;;8.20;99.90;;;;;;5113431;28;20194;-64
2023/12/28 03:09:43;;;;;;;11.03;10.63;;;8.20;99.90;;;;;;5108883;28;20237;-60
2023/12/28 03:12:10;;;;;;;11.40;11.00;;;8.30;99.90;;;;;;5115488;28;20202;-63
2023/12/28 03:14:38;;;;;;;11.10;10.70;;;8.30;99.90;;;;;;5110706;28;20601;-63
2023/12/28 03:17:05;;;;;;;11.17;10.77;;;8.40;99.90;;;;;;5071430;28;1051005;-62
2023/12/28 03:19:31;;;;;;;10.80;10.40;;;8.40;99.90;;;;;;5112382;28;20597;-62
2023/12/28 03:21:58;;;;;;;11.00;10.60;;;8.50;99.90;;;;;;5108761;28;20210;-62
2023/12/28 03:24:25;;;;;;;11.30;10.90;;;8.60;99.90;;;;;;5107818;28;20209;-61
2023/12/28 03:26:51;;;;;;;11.30;10.90;;;8.70;99.90;;;;;;5111265;28;20214;-62
2023/12/28 03:29:18;;;;;;;11.73;11.33;;;8.80;99.90;;;;;;5107758;28;20664;-62
2023/12/28 03:31:46;;;;;;;12.00;11.60;;;9.30;99.90;;;;;;5109742;28;20252;-63
2023/12/28 03:34:13;;;;;;;12.33;11.93;;;9.60;99.90;;;;;;5111837;28;20201;-63
2023/12/28 03:36:40;;;;;;;12.93;12.50;;;9.60;99.90;;;;;;5109897;28;20676;-63
2023/12/28 03:39:06;;;;;;;13.73;13.23;;;9.60;99.90;;;;;;5110525;28;20700;-63
2023/12/28 03:41:33;;;;;;;13.13;12.63;;;9.60;99.90;;;;;;5104868;28;20225;-62
2023/12/28 03:44:00;;;;;;;12.13;11.73;;;9.70;99.90;;;;;;5107908;28;20203;-61
2023/12/28 03:46:27;;;;;;;13.83;13.33;;;9.60;99.90;;;;;;5110442;28;20201;-61
2023/12/28 03:48:55;;;;;;;12.30;11.90;;;9.70;99.90;;;;;;5111262;28;20623;-62
2023/12/28 03:51:22;;;;;;;14.53;14.03;;;9.80;99.90;;;;;;5114797;28;20233;-64
2023/12/28 03:53:48;;;;;;;13.57;13.07;;;9.90;99.90;;;;;;5109756;28;20210;-63
2023/12/28 03:56:23;;;;;;;13.10;12.60;;;10.10;99.90;;;;;;5108721;28;20210;-63
2023/12/28 03:58:50;;;;;;;12.87;12.47;;;10.30;99.90;;;;;;5107123;28;20225;-63
2023/12/28 04:01:18;;;;;;;12.70;12.20;;;10.20;99.90;;;;;;5106768;28;20768;-63
2023/12/28 04:03:44;;;;;;;12.40;12.00;;;10.30;99.90;;;;;;5106761;27;20229;-62
2023/12/28 04:06:13;;;;;;;12.40;12.00;;;10.30;99.90;;;;;;5111790;28;20585;-63
2023/12/28 04:08:40;;;;;;;12.27;11.87;;;10.30;99.90;;;;;;5111487;27;20205;-63
2023/12/28 04:11:06;;;;;;;12.40;12.00;;;10.40;99.90;;;;;;5108360;28;20222;-61
2023/12/28 04:13:33;;;;;;;11.93;11.53;;;10.40;99.90;;;;;;5110343;28;20206;-63
2023/12/28 04:16:00;;;;;;;12.40;11.90;;;10.40;99.90;;;;;;5109634;28;20226;-61
2023/12/28 04:18:26;;;;;;;12.23;11.83;;;10.50;99.90;;;;;;5109942;28;20270;-62
2023/12/28 04:20:53;;;;;;;12.40;12.00;;;10.60;99.90;;;;;;5118843;27;20228;-63
2023/12/28 04:23:21;;;;;;;11.67;11.27;;;10.60;99.90;;;;;;5123578;27;20209;-62
2023/12/28 04:25:48;;;;;;;11.80;11.40;;;10.70;99.90;;;;;;5120154;27;20221;-62
2023/12/28 04:28:15;;;;;;;12.37;11.87;;;10.70;99.90;;;;;;5126983;27;20665;-62
2023/12/28 04:30:42;;;;;;;11.80;11.40;;;10.70;99.90;;;;;;5115093;28;20707;-64
2023/12/28 04:33:09;;;;;;;12.80;12.40;;;10.60;99.90;;;;;;5105664;27;20209;-61
2023/12/28 04:35:35;;;;;;;12.20;11.80;;;10.60;99.90;;;;;;5106763;27;20215;-63
2023/12/28 04:38:02;;;;;;;11.83;11.43;;;10.70;99.90;;;;;;5109789;27;20308;-64
2023/12/28 04:40:30;;;;;;;12.27;11.87;;;10.80;99.90;;;;;;5106522;28;20241;-61
2023/12/28 04:42:57;;;;;;;12.73;12.23;;;10.80;99.90;;;;;;5110963;27;20661;-63
2023/12/28 04:45:24;;;;;;;11.73;11.33;;;10.80;99.90;;;;;;5103397;28;20198;-63
2023/12/28 04:47:50;;;;;;;12.10;11.70;;;10.80;99.90;;;;;;5110985;28;20198;-63
2023/12/28 04:50:17;;;;;;;11.83;11.43;;;10.80;99.90;;;;;;5113323;27;20225;-63
2023/12/28 04:52:44;;;;;;;11.80;11.40;;;10.80;99.90;;;;;;5106841;28;20206;-62
2023/12/28 04:55:11;;;;;;;11.90;11.50;;;10.90;99.90;;;;;;5107764;27;20679;-62
2023/12/28 04:57:41;;;;;;;11.80;11.40;;;10.90;99.90;;;;;;5108075;28;20210;-63
2023/12/28 05:00:09;;;;;;;11.50;11.10;;;10.80;99.90;;;;;;5103085;28;20224;-62
2023/12/28 05:02:36;;;;;;;11.63;11.23;;;10.90;99.90;;;;;;5113579;27;20206;-62
2023/12/28 05:05:03;;;;;;;11.73;11.33;;;10.90;99.90;;;;;;5109241;28;20194;-63
2023/12/28 05:07:30;;;;;;;11.97;11.57;;;10.90;99.90;;;;;;5109525;28;20281;-62
2023/12/28 05:09:56;;;;;;;12.23;11.83;;;10.90;99.90;;;;;;5106189;28;20226;-62
2023/12/28 05:12:23;;;;;;;11.98;11.57;;;11.00;99.90;;;;;;5114985;28;20205;-63
2023/12/28 05:14:51;;;;;;;11.97;11.57;;;11.10;99.90;;;;;;5111350;28;20198;-62
2023/12/28 05:17:18;;;;;;;12.10;11.70;;;11.00;99.90;;;;;;5115487;28;20573;-64
2023/12/28 05:19:45;;;;;;;11.87;11.47;;;11.10;99.90;;;;;;5115594;27;20619;-64
2023/12/28 05:22:12;;;;;;;12.30;11.90;;;11.10;99.90;;;;;;5112059;28;20217;-63
2023/12/28 05:24:39;;;;;;;12.47;12.07;;;11.10;99.90;;;;;;5111529;28;20207;-61
2023/12/28 05:27:05;;;;;;;13.47;13.00;;;11.10;99.90;;;;;;5110275;28;20214;-63
2023/12/28 05:29:32;;;;;;;12.73;12.27;;;11.10;99.90;;;;;;5113330;28;20194;-63
2023/12/28 05:32:00;;;;;;;14.17;13.67;;;11.20;99.90;;;;;;5114994;28;20222;-62
2023/12/28 05:34:27;;;;;;;13.70;13.20;;;11.20;99.90;;;;;;5114002;28;20198;-64
2023/12/28 05:36:53;;;;;;;15.63;15.13;;;11.20;99.90;;;;;;5109374;28;20202;-63
2023/12/28 05:39:20;;;;;;;13.27;12.77;;;11.30;99.90;;;;;;5121354;28;20226;-63
2023/12/28 05:41:47;;;;;;;14.77;14.27;;;11.30;99.90;;;;;;5119291;28;20222;-63
2023/12/28 05:44:14;;;;;;;13.83;13.33;;;11.20;99.90;;;;;;5112145;28;20218;-64
2023/12/28 05:46:41;;;;;;;14.63;14.13;;;11.20;99.90;;;;;;5109570;28;20229;-63
2023/12/28 05:49:09;;;;;;;14.00;13.50;;;11.10;99.90;;;;;;5109490;28;20537;-63
2023/12/28 05:51:40;;;;;;;12.87;12.37;;;11.10;99.90;;;;;;5108923;28;20226;-62
2023/12/28 05:54:07;;;;;;;13.63;13.13;;;11.10;99.90;;;;;;5112461;28;20259;-62
2023/12/28 05:56:34;;;;;;;13.80;13.30;;;11.20;99.90;;;;;;5109798;28;20548;-63
2023/12/28 05:59:00;;;;;;;13.87;13.37;;;11.20;99.90;;;;;;5113684;28;20218;-63
2023/12/28 06:01:27;;;;;;;13.57;13.10;;;11.10;99.90;;;;;;5114623;28;20225;-61
2023/12/28 06:03:54;;;;;;;13.33;12.90;;;11.10;99.90;;;;;;5112172;28;21163;-62
2023/12/28 06:06:22;;;;;;;15.50;15.00;;;11.10;99.90;;;;;;5109805;28;20202;-62
2023/12/28 06:08:49;;;;;;;13.77;13.27;;;11.10;99.90;;;;;;5113860;27;20202;-62
2023/12/28 06:11:15;;;;;;;14.63;14.13;;;11.10;99.90;;;;;;5110483;28;20233;-61
2023/12/28 06:13:42;;;;;;;13.00;12.60;;;11.10;99.90;;;;;;5114736;28;20198;-63
2023/12/28 06:16:10;;;;;;;14.90;14.40;;;11.20;99.90;;;;;;5113305;28;20210;-62
2023/12/28 06:18:36;;;;;;;14.30;13.83;;;11.20;99.90;;;;;;5121874;27;20229;-63
2023/12/28 06:21:05;;;;;;;15.57;15.03;;;11.10;99.90;;;;;;5111846;28;20229;-63
2023/12/28 06:23:33;;;;;;;13.13;12.63;;;11.20;99.90;;;;;;5114906;28;20744;-63
2023/12/28 06:26:05;;;;;;;14.63;14.13;;;11.10;99.90;;;;;;5115587;27;20205;-63
2023/12/28 06:28:32;;;;;;;14.57;14.07;;;11.10;99.90;;;;;;5113717;28;20194;-63
2023/12/28 06:31:00;;;;;;;17.07;16.47;;;11.10;99.90;;;;;;5114561;28;20232;-62
2023/12/28 06:33:27;;;;;;;16.70;16.10;;;11.10;99.90;;;;;;5118481;27;20280;-63
2023/12/28 06:35:54;;;;;;;14.73;14.10;;;11.10;99.90;;;;;;5119822;27;20205;-62
2023/12/28 06:38:21;;;;;;;14.10;13.60;;;11.10;99.90;;;;;;5113328;27;20241;-61
2023/12/28 06:40:49;;;;;;;14.77;14.27;;;11.20;99.90;;;;;;5115592;28;20596;-63
2023/12/28 06:43:16;;;;;;;13.63;13.13;;;11.20;99.90;;;;;;5116526;27;20207;-63
2023/12/28 06:45:42;;;;;;;14.70;14.20;;;11.30;99.90;;;;;;5118145;27;20202;-62
2023/12/28 06:48:09;;;;;;;13.63;13.13;;;11.30;99.90;;;;;;5116675;27;20269;-62
2023/12/28 06:50:36;;;;;;;13.87;13.37;;;11.30;99.90;;;;;;5113221;27;20222;-62
2023/12/28 06:53:03;;;;;;;14.13;13.63;;;11.30;99.90;;;;;;5119044;27;20201;-62
2023/12/28 06:55:29;;;;;;;13.97;13.47;;;11.40;99.90;;;;;;5112870;28;20203;-64
2023/12/28 06:57:57;;;;;;;13.57;13.10;;;11.30;99.90;;;;;;5117724;27;20694;-62
2023/12/28 07:00:24;;;;;;;16.13;15.63;;;11.30;99.90;;;;;;5117806;27;20225;-62
2023/12/28 07:02:51;;;;;;;17.33;16.73;;;11.40;99.90;;;;;;5115714;27;20206;-62
2023/12/28 07:05:17;;;;;;;14.67;14.17;;;11.40;99.90;;;;;;5111602;28;20240;-63
2023/12/28 07:07:44;;;;;;;15.60;15.10;;;11.50;99.90;;;;;;5114660;28;20205;-60
2023/12/28 07:10:11;;;;;;;15.53;15.03;;;11.60;99.90;;;;;;5117151;27;20237;-61
2023/12/28 07:12:38;;;;;;;14.90;14.40;;;11.50;99.90;;;;;;5118222;27;20571;-64
2023/12/28 07:15:07;;;;;;;14.50;14.00;;;11.50;99.90;;;;;;5117781;27;20198;-66
2023/12/28 07:17:33;;;;;;;15.67;15.17;;;11.50;99.90;;;;;;5112725;28;20214;-65
2023/12/28 07:20:00;;;;;;;14.70;14.20;;;11.50;99.90;;;;;;5115071;27;20233;-64
2023/12/28 07:22:27;;;;;;;15.13;14.63;;;11.50;99.90;;;;;;5112344;28;20213;-64
2023/12/28 07:24:53;;;;;;;15.73;15.23;;;11.50;99.90;;;;;;5114776;28;20206;-65
2023/12/28 07:27:20;;;;;;;15.67;15.17;;;11.50;99.90;;;;;;5129519;27;20210;-66
2023/12/28 07:29:47;;;;;;;15.93;15.40;;;11.50;99.90;;;;;;5112438;28;20218;-67
2023/12/28 07:32:15;;;;;;;14.93;14.43;;;11.50;99.90;;;;;;5124552;27;20213;-66
2023/12/28 07:34:42;;;;;;;14.67;14.17;;;11.40;99.90;;;;;;5123829;27;20197;-67
2023/12/28 07:37:09;;;;;;;15.10;14.60;;;11.40;99.90;;;;;;5128983;27;20216;-66
2023/12/28 07:39:35;;;;;;;14.70;14.20;;;11.40;99.90;;;;;;5127239;27;20217;-67
2023/12/28 07:42:02;;;;;;;13.50;13.03;;;11.30;99.90;;;;;;5128555;27;20202;-67
2023/12/28 07:44:29;;;;;;;13.53;13.03;;;11.30;99.90;;;;;;5129651;27;20201;-66
2023/12/28 07:46:56;;;;;;;14.37;13.87;;;11.30;99.90;;;;;;5119873;27;20206;-65
2023/12/28 07:49:24;;;;;;;13.97;13.47;;;11.30;99.90;;;;;;5125731;27;20201;-67
2023/12/28 07:51:50;;;;;;;13.43;12.93;;;11.30;99.90;;;;;;5128054;27;20209;-66
2023/12/28 07:54:17;;;;;;;14.43;13.93;;;11.30;99.90;;;;;;5137818;27;20202;-67
2023/12/28 07:56:44;;;;;;;14.80;14.30;;;11.30;99.90;;;;;;5139666;27;20201;-68
2023/12/28 07:59:11;;;;;;;13.37;12.87;;;11.30;99.90;;;;;;5137174;27;20214;-66
2023/12/28 08:01:37;;;;;;;13.50;13.00;;;11.30;99.90;;;;;;5135833;27;20251;-66
2023/12/28 08:04:04;;;;;;;14.63;14.13;;;11.30;99.90;;;;;;5132055;27;20204;-67
2023/12/28 08:06:33;;;;;;;14.03;13.53;;;11.30;99.90;;;;;;5123615;27;20201;-65
2023/12/28 08:09:00;;;;;;;15.07;14.57;;;11.30;99.90;;;;;;5125653;27;20228;-66
2023/12/28 08:11:27;;;;;;;14.47;13.97;;;11.30;99.90;;;;;;5120892;27;20217;-67
2023/12/28 08:13:54;;;;;;;13.83;13.33;;;11.30;99.90;;;;;;5127327;27;20206;-65
2023/12/28 08:16:21;;;;;;;13.63;13.13;;;11.40;99.90;;;;;;5131073;27;20194;-67
2023/12/28 08:18:48;;;;;;;13.40;12.90;;;11.40;99.90;;;;;;5121488;27;20695;-67
2023/12/28 08:21:15;;;;;;;14.27;13.77;;;11.50;99.90;;;;;;5132512;27;20256;-67
2023/12/28 08:23:44;;;;;;;13.80;13.30;;;11.50;99.90;;;;;;5130724;27;20205;-67
2023/12/28 08:26:11;;;;;;;14.03;13.53;;;11.50;99.90;;;;;;5128377;27;20190;-67
2023/12/28 08:28:38;;;;;;;13.77;13.27;;;11.50;99.90;;;;;;5124325;27;20649;-64
2023/12/28 08:31:07;;;;;;;13.87;13.37;;;11.50;99.90;;;;;;5124106;27;20700;-67
2023/12/28 08:33:35;;;;;;;12.97;12.57;;;11.40;99.90;;;;;;5123088;27;20208;-67
2023/12/28 08:36:03;;;;;;;13.13;12.70;;;11.40;99.90;;;;;;5122613;27;20208;-67
2023/12/28 08:38:30;;;;;;;13.30;12.80;;;11.30;99.90;;;;;;5125639;27;20197;-67
2023/12/28 08:40:58;;;;;;;13.17;12.67;;;11.20;99.90;;;;;;5130743;27;20221;-67
2023/12/28 08:43:25;;;;;;;12.50;12.10;;;11.20;99.90;;;;;;5139892;27;20221;-67
2023/12/28 08:45:52;;;;;;;12.50;12.10;;;11.10;99.90;;;;;;5134818;27;20197;-66
2023/12/28 08:48:18;;;;;;;12.38;11.98;;;11.20;99.90;;;;;;5129193;27;20217;-65
2023/12/28 08:50:45;;;;;;;12.93;12.50;;;11.30;99.90;;;;;;5137933;27;20218;-68
2023/12/28 08:53:12;;;;;;;14.57;14.07;;;11.10;99.90;;;;;;5132257;27;20202;-67
2023/12/28 08:55:38;;;;;;;13.80;13.30;;;11.20;99.90;;;;;;5137530;27;20223;-66
2023/12/28 08:58:07;;;;;;;13.17;12.67;;;11.10;99.90;;;;;;5126681;27;20221;-66
2023/12/28 09:00:34;;;;;;;13.37;12.87;;;11.10;99.90;;;;;;5130727;27;20709;-65
2023/12/28 09:03:00;;;;;;;14.63;14.13;;;11.10;99.90;;;;;;5128288;27;20682;-67
2023/12/28 09:05:27;;;;;;;13.70;13.20;;;11.10;99.90;;;;;;5120503;27;20197;-67
2023/12/28 09:07:54;;;;;;;13.60;13.10;;;11.20;99.90;;;;;;5128411;27;20204;-64
2023/12/28 09:10:20;;;;;;;14.43;13.93;;;11.20;99.90;;;;;;5130368;27;20214;-65
2023/12/28 09:12:48;;;;;;;13.43;12.93;;;11.20;99.90;;;;;;5135584;27;20212;-66
2023/12/28 09:15:16;;;;;;;13.23;12.73;;;11.30;99.90;;;;;;5127173;28;20193;-65
2023/12/28 09:17:43;;;;;;;12.43;12.03;;;11.30;99.90;;;;;;5119633;28;20213;-64
2023/12/28 09:20:11;;;;;;;14.10;13.60;;;11.40;99.90;;;;;;5127216;28;20221;-66
2023/12/28 09:22:38;;;;;;;13.07;12.57;;;11.40;99.90;;;;;;5125333;27;20227;-65
2023/12/28 09:25:06;;;;;;;13.30;12.80;;;11.40;99.90;;;;;;5120201;27;20741;-66
2023/12/28 09:27:32;;;;;;;14.13;13.63;;;11.40;99.90;;;;;;5122971;27;20350;-67
2023/12/28 09:29:59;;;;;;;14.50;13.93;;;11.40;99.90;;;;;;5117503;28;20236;-65
2023/12/28 09:32:27;;;;;;;13.17;12.77;;;11.40;99.90;;;;;;5125178;28;20660;-66
2023/12/28 09:34:54;;;;;;;13.00;12.60;;;11.50;99.90;;;;;;5119645;27;20214;-66
2023/12/28 09:37:20;;;;;;;14.00;13.50;;;11.50;99.90;;;;;;5132198;28;20209;-66
2023/12/28 09:39:47;;;;;;;12.40;12.00;;;11.40;99.90;;;;;;5121940;27;20230;-66
2023/12/28 09:42:24;;;;;;;12.73;12.30;;;11.50;99.90;;;;;;5132799;28;21616;-65
2023/12/28 09:44:51;;;;;;;12.77;12.37;;;11.50;99.90;;;;;;5118534;27;20205;-68
2023/12/28 09:47:17;;;;;;;12.30;11.90;;;11.50;99.90;;;;;;5120552;27;20692;-65
2023/12/28 09:49:47;;;;;;;12.30;11.90;;;11.50;99.90;;;;;;5120765;27;20190;-65
2023/12/28 09:52:14;;;;;;;13.13;12.70;;;11.50;99.90;;;;;;5128688;27;20781;-66
2023/12/28 09:54:41;;;;;;;13.53;13.03;;;11.50;99.90;;;;;;5131612;27;20670;-66
2023/12/28 09:57:09;;;;;;;13.50;13.00;;;11.40;99.90;;;;;;5127009;27;20198;-66
2023/12/28 09:59:36;;;;;;;13.27;12.77;;;11.40;99.90;;;;;;5133346;27;20221;-66
2023/12/28 10:02:03;;;;;;;13.43;12.93;;;11.40;99.90;;;;;;5127720;27;20197;-64
2023/12/28 10:04:30;;;;;;;12.30;11.90;;;11.40;99.90;;;;;;5127226;27;20622;-65
2023/12/28 10:06:58;;;;;;;13.53;13.03;;;11.40;99.90;;;;;;5128306;27;20208;-63
2023/12/28 10:09:27;;;;;;;13.67;13.17;;;11.40;99.90;;;;;;5128574;27;20194;-64
2023/12/28 10:11:54;;;;;;;14.03;13.53;;;11.30;99.90;;;;;;5128429;27;20202;-63
2023/12/28 10:14:21;;;;;;;13.50;13.00;;;11.30;99.90;;;;;;5128256;27;20204;-65
2023/12/28 10:16:48;;;;;;;13.70;13.20;;;11.30;99.90;;;;;;5132319;27;20205;-63
2023/12/28 10:19:15;;;;;;;14.03;13.53;;;11.40;99.90;;;;;;5125673;27;20197;-63
2023/12/28 10:21:43;;;;;;;13.60;13.10;;;11.40;99.90;;;;;;5128138;27;20232;-65
2023/12/28 10:24:13;;;;;;;13.80;13.30;;;11.30;99.90;;;;;;5129451;27;20292;-64
2023/12/28 10:26:40;;;;;;;13.97;13.47;;;11.40;99.90;;;;;;5133495;27;20201;-64
2023/12/28 10:29:07;;;;;;;13.10;12.70;;;11.40;99.90;;;;;;5129980;27;20224;-64
2023/12/28 10:31:33;;;;;;;13.70;13.20;;;11.40;99.90;;;;;;5125199;27;20221;-64
2023/12/28 10:34:02;;;;;;;13.37;12.90;;;11.40;99.90;;;;;;5130350;27;20197;-62
2023/12/28 10:36:29;;;;;;;14.60;14.10;;;11.40;99.90;;;;;;5122292;27;20222;-63
2023/12/28 10:38:58;;;;;;;13.90;13.40;;;11.40;99.90;;;;;;5131651;27;20202;-63
2023/12/28 10:41:29;;;;;;;14.07;13.57;;;11.40;99.90;;;;;;5127636;27;20229;-63
2023/12/28 10:44:03;;;;;;;13.83;13.33;;;11.30;99.90;;;;;;5130535;27;20294;-64
2023/12/28 10:46:33;;;;;;;13.97;13.47;;;11.40;99.90;;;;;;5124980;27;20206;-64
2023/12/28 10:49:06;;;;;;;14.73;14.23;;;11.30;99.90;;;;;;5125983;27;20640;-66
2023/12/28 10:51:36;;;;;;;14.00;13.50;;;11.30;99.90;;;;;;5124662;27;20258;-62
2023/12/28 10:54:21;;;;;;;14.40;13.90;;;11.30;99.90;;;;;;5127909;27;20208;-64
2023/12/28 10:56:56;;;;;;;14.40;13.90;;;11.30;99.90;;;;;;5127440;27;20588;-65
2023/12/28 10:59:34;;;;;;;14.83;14.33;;;11.30;99.90;;;;;;5130213;27;20579;-64
2023/12/28 11:02:03;;;;;;;15.37;14.77;;;11.30;99.90;;;;;;5127996;27;20208;-64
2023/12/28 11:04:38;;;;;;;14.63;14.13;;;11.30;99.90;;;;;;5122099;27;20206;-63
2023/12/28 11:07:07;;;;;;;14.57;14.07;;;11.20;99.90;;;;;;5126231;27;20220;-65
2023/12/28 11:09:37;;;;;;;14.57;14.07;;;11.20;99.90;;;;;;5123858;27;20684;-64
2023/12/28 11:12:07;;;;;;;14.57;14.07;;;11.20;99.90;;;;;;5130854;27;20583;-63
2023/12/28 11:14:35;;;;;;;15.40;14.90;;;11.10;99.90;;;;;;5128927;27;20190;-63
2023/12/28 11:17:03;;;;;;;15.50;15.00;;;11.10;99.90;;;;;;5127847;27;20222;-65
2023/12/28 11:19:31;;;;;;;14.93;14.43;;;11.10;99.90;;;;;;5124822;27;20664;-65
2023/12/28 11:21:59;;;;;;;16.33;15.73;;;11.00;99.90;;;;;;5113164;27;20212;-64
2023/12/28 11:24:28;;;;;;;16.67;16.07;;;11.00;99.90;;;;;;5124078;27;20251;-64
2023/12/28 11:26:55;;;;;;;17.03;16.43;;;11.00;99.90;;;;;;5131561;27;20690;-64
2023/12/28 11:29:24;;;;;;;17.97;17.37;;;11.00;99.90;;;;;;5125797;27;20224;-64
2023/12/28 11:31:52;;;;;;;17.90;17.30;;;11.00;99.90;;;;;;5129929;27;20217;-62
2023/12/28 11:34:19;;;;;;;19.20;18.53;;;11.00;99.90;;;;;;5124404;27;20201;-65
2023/12/28 11:36:50;;;;;;;18.87;18.17;;;11.00;99.90;;;;;;5126054;27;20661;-63
2023/12/28 11:39:26;;;;;;;18.80;18.15;;;11.00;99.90;;;;;;5125598;27;20660;-64
2023/12/28 11:42:02;;;;;;;17.87;17.27;;;11.00;99.90;;;;;;5129702;27;20229;-64
2023/12/28 11:44:30;;;;;;;17.43;16.83;;;11.00;99.90;;;;;;5126890;27;20656;-65
2023/12/28 11:46:58;;;;;;;18.33;17.73;;;11.00;99.90;;;;;;5126137;27;20202;-64
2023/12/28 11:49:29;;;;;;;18.70;18.07;;;11.00;99.90;;;;;;5129646;27;20200;-65
2023/12/28 11:51:57;;;;;;;18.30;17.70;;;11.00;99.90;;;;;;5125767;27;20190;-67
2023/12/28 11:54:26;;;;;;;17.30;16.70;;;10.90;99.90;;;;;;5122341;27;20220;-65
2023/12/28 11:56:53;;;;;;;20.13;19.43;;;10.90;99.90;;;;;;5134019;27;20202;-66
2023/12/28 11:59:20;;;;;;;17.63;17.03;;;10.90;99.90;;;;;;5134628;27;20565;-66
2023/12/28 12:01:52;;;;;;;17.70;17.10;;;10.90;99.90;;;;;;5121599;27;20226;-65
2023/12/28 12:04:19;;;;;;;20.40;19.70;;;10.90;99.90;;;;;;5119893;27;20218;-65
2023/12/28 12:06:47;;;;;;;19.10;18.40;;;10.90;99.90;;;;;;5117789;27;20202;-63
2023/12/28 12:09:13;;;;;;;18.47;17.83;;;10.90;99.90;;;;;;5115808;27;20206;-64
2023/12/28 12:11:40;;;;;;;17.63;17.03;;;11.00;99.90;;;;;;5118149;27;20226;-64
2023/12/28 12:14:09;;;;;;;19.03;18.33;;;11.00;99.90;;;;;;5115023;27;20209;-64
2023/12/28 12:16:36;;;;;;;19.10;18.40;;;11.00;99.90;;;;;;5113938;27;20668;-65
2023/12/28 12:19:06;;;;;;;19.50;18.80;;;11.10;99.90;;;;;;5114144;27;20271;-63
2023/12/28 12:21:33;;;;;;;19.05;18.35;;;11.10;99.90;;;;;;5111953;27;20274;-64
2023/12/28 12:24:00;;;;;;;19.90;19.20;;;11.10;99.90;;;;;;5115787;27;20317;-64
2023/12/28 12:26:27;;;;;;;19.13;18.43;;;11.10;99.90;;;;;;5109782;27;20222;-62
2023/12/28 12:28:54;;;;;;;18.27;17.67;;;11.10;99.90;;;;;;5123888;27;20211;-62
2023/12/28 12:31:21;;;;;;;17.60;17.00;;;11.20;99.90;;;;;;5117768;27;20226;-64